sensor_id;sensor_type;location;lat;lon;timestamp;P1;durP1;ratioP1;P2;durP2;ratioP2
84956;SDS011;75252;45.438;-73.814;2024-01-15T00:05:00;4.50;;;3.30;;
84956;SDS011;75252;45.438;-73.814;2024-01-15T00:07:26;7.78;;;2.65;;
84956;SDS011;75252;45.438;-73.814;2024-01-15T00:09:54;3.42;;;2.65;;
84956;SDS011;75252;45.438;-73.814;2024-01-15T00:12:20;3.58;;;3.10;;
84956;SDS011;75252;45.438;-73.814;2024-01-15T00:14:46;2.55;;;2.10;;
84956;SDS011;75252;45.438;-73.814;2024-01-15T00:17:12;3.08;;;2.60;;
84956;SDS011;75252;45.438;-73.814;2024-01-15T00:19:38;2.63;;;2.17;;
84956;SDS011;75252;45.438;-73.814;2024-01-15T00:22:04;2.38;;;2.13;;
84956;SDS011;75252;45.438;-73.814;2024-01-15T00:24:30;2.58;;;2.38;;
84956;SDS011;75252;45.438;-73.814;2024-01-15T00:26:56;4.25;;;2.00;;
84956;SDS011;75252;45.438;-73.814;2024-01-15T00:29:22;2.60;;;2.20;;
84956;SDS011;75252;45.438;-73.814;2024-01-15T00:31:47;4.68;;;2.30;;
84956;SDS011;75252;45.438;-73.814;2024-01-15T00:34:13;4.03;;;2.83;;
84956;SDS011;75252;45.438;-73.814;2024-01-15T00:36:39;2.47;;;2.00;;
84956;SDS011;75252;45.438;-73.814;2024-01-15T00:39:05;2.20;;;2.00;;
84956;SDS011;75252;45.438;-73.814;2024-01-15T00:41:31;4.80;;;1.88;;
84956;SDS011;75252;45.438;-73.814;2024-01-15T00:43:57;2.17;;;1.77;;
84956;SDS011;75252;45.438;-73.814;2024-01-15T00:46:23;3.50;;;2.08;;
84956;SDS011;75252;45.438;-73.814;2024-01-15T00:48:49;8.35;;;1.83;;
84956;SDS011;75252;45.438;-73.814;2024-01-15T00:51:15;2.60;;;1.85;;
84956;SDS011;75252;45.438;-73.814;2024-01-15T00:53:40;1.85;;;1.45;;
84956;SDS011;75252;45.438;-73.814;2024-01-15T00:56:06;3.08;;;2.47;;
84956;SDS011;75252;45.438;-73.814;2024-01-15T00:58:32;3.92;;;2.22;;
84956;SDS011;75252;45.438;-73.814;2024-01-15T01:00:58;5.95;;;2.50;;
84956;SDS011;75252;45.438;-73.814;2024-01-15T01:03:24;1.42;;;1.33;;
84956;SDS011;75252;45.438;-73.814;2024-01-15T01:05:50;4.38;;;1.90;;
84956;SDS011;75252;45.438;-73.814;2024-01-15T01:08:16;2.97;;;1.95;;
84956;SDS011;75252;45.438;-73.814;2024-01-15T01:10:42;2.80;;;1.90;;
84956;SDS011;75252;45.438;-73.814;2024-01-15T01:13:08;2.25;;;2.05;;
84956;SDS011;75252;45.438;-73.814;2024-01-15T01:15:37;1.55;;;1.45;;
84956;SDS011;75252;45.438;-73.814;2024-01-15T01:18:04;2.10;;;1.55;;
84956;SDS011;75252;45.438;-73.814;2024-01-15T01:20:30;2.80;;;2.03;;
84956;SDS011;75252;45.438;-73.814;2024-01-15T01:22:55;4.65;;;2.00;;
84956;SDS011;75252;45.438;-73.814;2024-01-15T01:25:21;5.72;;;2.05;;
84956;SDS011;75252;45.438;-73.814;2024-01-15T01:27:47;2.92;;;2.00;;
84956;SDS011;75252;45.438;-73.814;2024-01-15T01:30:13;1.88;;;1.70;;
84956;SDS011;75252;45.438;-73.814;2024-01-15T01:32:39;2.17;;;1.58;;
84956;SDS011;75252;45.438;-73.814;2024-01-15T01:35:05;3.33;;;2.08;;
84956;SDS011;75252;45.438;-73.814;2024-01-15T01:37:31;2.78;;;2.03;;
84956;SDS011;75252;45.438;-73.814;2024-01-15T01:39:59;2.60;;;2.30;;
84956;SDS011;75252;45.438;-73.814;2024-01-15T01:42:25;4.15;;;2.03;;
84956;SDS011;75252;45.438;-73.814;2024-01-15T01:44:51;2.80;;;1.83;;
84956;SDS011;75252;45.438;-73.814;2024-01-15T01:47:17;5.43;;;2.20;;
84956;SDS011;75252;45.438;-73.814;2024-01-15T01:49:43;3.05;;;1.65;;
84956;SDS011;75252;45.438;-73.814;2024-01-15T01:52:09;2.50;;;1.77;;
84956;SDS011;75252;45.438;-73.814;2024-01-15T01:54:36;2.20;;;2.00;;
84956;SDS011;75252;45.438;-73.814;2024-01-15T01:57:03;3.33;;;1.70;;
84956;SDS011;75252;45.438;-73.814;2024-01-15T01:59:32;4.45;;;1.48;;
84956;SDS011;75252;45.438;-73.814;2024-01-15T02:02:01;5.03;;;1.48;;
84956;SDS011;75252;45.438;-73.814;2024-01-15T02:04:29;1.63;;;1.50;;
84956;SDS011;75252;45.438;-73.814;2024-01-15T02:06:56;4.32;;;2.17;;
84956;SDS011;75252;45.438;-73.814;2024-01-15T02:09:22;1.40;;;1.30;;
84956;SDS011;75252;45.438;-73.814;2024-01-15T02:11:48;2.33;;;1.75;;
84956;SDS011;75252;45.438;-73.814;2024-01-15T02:14:14;1.85;;;1.55;;
84956;SDS011;75252;45.438;-73.814;2024-01-15T02:16:41;3.17;;;1.65;;
84956;SDS011;75252;45.438;-73.814;2024-01-15T02:19:06;1.38;;;1.27;;
84956;SDS011;75252;45.438;-73.814;2024-01-15T02:21:33;1.58;;;1.42;;
84956;SDS011;75252;45.438;-73.814;2024-01-15T02:23:59;4.03;;;1.85;;
84956;SDS011;75252;45.438;-73.814;2024-01-15T02:26:25;2.88;;;2.50;;
84956;SDS011;75252;45.438;-73.814;2024-01-15T02:28:51;2.45;;;2.25;;
84956;SDS011;75252;45.438;-73.814;2024-01-15T02:31:17;1.42;;;1.33;;
84956;SDS011;75252;45.438;-73.814;2024-01-15T02:33:43;1.98;;;1.63;;
84956;SDS011;75252;45.438;-73.814;2024-01-15T02:36:11;4.50;;;2.03;;
84956;SDS011;75252;45.438;-73.814;2024-01-15T02:38:37;2.10;;;1.80;;
84956;SDS011;75252;45.438;-73.814;2024-01-15T02:41:03;1.98;;;1.77;;
84956;SDS011;75252;45.438;-73.814;2024-01-15T02:43:29;2.13;;;1.48;;
84956;SDS011;75252;45.438;-73.814;2024-01-15T02:45:55;1.98;;;1.88;;
84956;SDS011;75252;45.438;-73.814;2024-01-15T02:48:21;2.03;;;1.77;;
84956;SDS011;75252;45.438;-73.814;2024-01-15T02:50:47;1.73;;;1.63;;
84956;SDS011;75252;45.438;-73.814;2024-01-15T02:53:13;1.92;;;1.73;;
84956;SDS011;75252;45.438;-73.814;2024-01-15T02:55:39;1.60;;;1.50;;
84956;SDS011;75252;45.438;-73.814;2024-01-15T02:58:05;3.58;;;1.65;;
84956;SDS011;75252;45.438;-73.814;2024-01-15T03:00:31;1.35;;;1.25;;
84956;SDS011;75252;45.438;-73.814;2024-01-15T03:02:57;1.58;;;1.35;;
84956;SDS011;75252;45.438;-73.814;2024-01-15T03:05:22;1.98;;;1.15;;
84956;SDS011;75252;45.438;-73.814;2024-01-15T03:07:48;2.88;;;1.45;;
84956;SDS011;75252;45.438;-73.814;2024-01-15T03:10:15;1.75;;;1.65;;
84956;SDS011;75252;45.438;-73.814;2024-01-15T03:12:41;2.15;;;1.80;;
84956;SDS011;75252;45.438;-73.814;2024-01-15T03:15:06;3.80;;;1.20;;
84956;SDS011;75252;45.438;-73.814;2024-01-15T03:17:32;1.95;;;1.55;;
84956;SDS011;75252;45.438;-73.814;2024-01-15T03:19:58;2.10;;;1.92;;
84956;SDS011;75252;45.438;-73.814;2024-01-15T03:22:24;2.28;;;1.67;;
84956;SDS011;75252;45.438;-73.814;2024-01-15T03:24:50;1.95;;;1.75;;
84956;SDS011;75252;45.438;-73.814;2024-01-15T03:27:17;1.60;;;1.50;;
84956;SDS011;75252;45.438;-73.814;2024-01-15T03:29:43;3.05;;;1.88;;
84956;SDS011;75252;45.438;-73.814;2024-01-15T03:32:09;2.05;;;1.60;;
84956;SDS011;75252;45.438;-73.814;2024-01-15T03:34:35;2.53;;;1.73;;
84956;SDS011;75252;45.438;-73.814;2024-01-15T03:37:01;2.85;;;1.70;;
84956;SDS011;75252;45.438;-73.814;2024-01-15T03:39:27;2.33;;;1.92;;
84956;SDS011;75252;45.438;-73.814;2024-01-15T03:41:53;1.52;;;1.42;;
84956;SDS011;75252;45.438;-73.814;2024-01-15T03:44:19;2.22;;;1.67;;
84956;SDS011;75252;45.438;-73.814;2024-01-15T03:46:44;3.60;;;1.85;;
84956;SDS011;75252;45.438;-73.814;2024-01-15T03:49:10;1.67;;;1.58;;
84956;SDS011;75252;45.438;-73.814;2024-01-15T03:51:37;1.83;;;1.70;;
84956;SDS011;75252;45.438;-73.814;2024-01-15T03:54:03;2.58;;;1.98;;
84956;SDS011;75252;45.438;-73.814;2024-01-15T03:56:28;3.45;;;1.67;;
84956;SDS011;75252;45.438;-73.814;2024-01-15T03:58:54;2.03;;;1.45;;
84956;SDS011;75252;45.438;-73.814;2024-01-15T04:01:20;1.40;;;1.30;;
84956;SDS011;75252;45.438;-73.814;2024-01-15T04:03:46;2.42;;;1.70;;
84956;SDS011;75252;45.438;-73.814;2024-01-15T04:06:12;1.35;;;1.27;;
84956;SDS011;75252;45.438;-73.814;2024-01-15T04:08:38;2.08;;;1.65;;
84956;SDS011;75252;45.438;-73.814;2024-01-15T04:11:04;4.13;;;2.13;;
84956;SDS011;75252;45.438;-73.814;2024-01-15T04:13:32;2.38;;;1.98;;
84956;SDS011;75252;45.438;-73.814;2024-01-15T04:15:59;3.88;;;1.55;;
84956;SDS011;75252;45.438;-73.814;2024-01-15T04:18:25;2.00;;;1.25;;
84956;SDS011;75252;45.438;-73.814;2024-01-15T04:20:51;3.80;;;1.75;;
84956;SDS011;75252;45.438;-73.814;2024-01-15T04:23:17;1.33;;;1.23;;
84956;SDS011;75252;45.438;-73.814;2024-01-15T04:25:43;6.28;;;2.30;;
84956;SDS011;75252;45.438;-73.814;2024-01-15T04:28:11;1.85;;;1.60;;
84956;SDS011;75252;45.438;-73.814;2024-01-15T04:30:37;1.60;;;1.52;;
84956;SDS011;75252;45.438;-73.814;2024-01-15T04:33:03;1.15;;;1.15;;
84956;SDS011;75252;45.438;-73.814;2024-01-15T04:35:30;3.05;;;2.38;;
84956;SDS011;75252;45.438;-73.814;2024-01-15T04:37:56;1.45;;;1.35;;
84956;SDS011;75252;45.438;-73.814;2024-01-15T04:40:22;2.13;;;1.13;;
84956;SDS011;75252;45.438;-73.814;2024-01-15T04:42:47;1.75;;;1.65;;
84956;SDS011;75252;45.438;-73.814;2024-01-15T04:45:14;1.60;;;1.50;;
84956;SDS011;75252;45.438;-73.814;2024-01-15T04:47:39;2.83;;;1.75;;
84956;SDS011;75252;45.438;-73.814;2024-01-15T04:50:06;2.22;;;1.83;;
84956;SDS011;75252;45.438;-73.814;2024-01-15T04:52:32;2.40;;;1.90;;
84956;SDS011;75252;45.438;-73.814;2024-01-15T04:54:58;1.63;;;1.52;;
84956;SDS011;75252;45.438;-73.814;2024-01-15T04:57:23;2.20;;;1.88;;
84956;SDS011;75252;45.438;-73.814;2024-01-15T04:59:49;1.75;;;1.42;;
84956;SDS011;75252;45.438;-73.814;2024-01-15T05:02:15;1.38;;;1.35;;
84956;SDS011;75252;45.438;-73.814;2024-01-15T05:04:41;1.67;;;1.25;;
84956;SDS011;75252;45.438;-73.814;2024-01-15T05:07:07;1.20;;;1.20;;
84956;SDS011;75252;45.438;-73.814;2024-01-15T05:09:33;1.00;;;1.00;;
84956;SDS011;75252;45.438;-73.814;2024-01-15T05:11:59;1.52;;;1.42;;
84956;SDS011;75252;45.438;-73.814;2024-01-15T05:14:25;2.35;;;2.10;;
84956;SDS011;75252;45.438;-73.814;2024-01-15T05:16:51;2.58;;;1.52;;
84956;SDS011;75252;45.438;-73.814;2024-01-15T05:19:17;1.52;;;1.42;;
84956;SDS011;75252;45.438;-73.814;2024-01-15T05:21:43;1.00;;;0.98;;
84956;SDS011;75252;45.438;-73.814;2024-01-15T05:24:09;3.40;;;1.45;;
84956;SDS011;75252;45.438;-73.814;2024-01-15T05:26:35;1.48;;;1.38;;
84956;SDS011;75252;45.438;-73.814;2024-01-15T05:29:01;1.33;;;1.23;;
84956;SDS011;75252;45.438;-73.814;2024-01-15T05:31:27;1.33;;;1.23;;
84956;SDS011;75252;45.438;-73.814;2024-01-15T05:33:53;1.75;;;1.65;;
84956;SDS011;75252;45.438;-73.814;2024-01-15T05:36:19;3.28;;;1.58;;
84956;SDS011;75252;45.438;-73.814;2024-01-15T05:38:44;2.47;;;1.52;;
84956;SDS011;75252;45.438;-73.814;2024-01-15T05:41:10;1.50;;;1.40;;
84956;SDS011;75252;45.438;-73.814;2024-01-15T05:43:36;3.42;;;1.77;;
84956;SDS011;75252;45.438;-73.814;2024-01-15T05:46:02;1.52;;;1.42;;
84956;SDS011;75252;45.438;-73.814;2024-01-15T05:48:28;1.45;;;1.35;;
84956;SDS011;75252;45.438;-73.814;2024-01-15T05:50:54;3.88;;;1.58;;
84956;SDS011;75252;45.438;-73.814;2024-01-15T05:53:20;4.20;;;2.13;;
84956;SDS011;75252;45.438;-73.814;2024-01-15T05:55:45;2.70;;;1.60;;
84956;SDS011;75252;45.438;-73.814;2024-01-15T05:58:11;0.88;;;0.88;;
84956;SDS011;75252;45.438;-73.814;2024-01-15T06:00:37;1.40;;;1.40;;
84956;SDS011;75252;45.438;-73.814;2024-01-15T06:03:03;2.25;;;1.75;;
84956;SDS011;75252;45.438;-73.814;2024-01-15T06:05:29;1.55;;;1.45;;
84956;SDS011;75252;45.438;-73.814;2024-01-15T06:07:55;1.40;;;1.33;;
84956;SDS011;75252;45.438;-73.814;2024-01-15T06:10:21;1.38;;;1.27;;
84956;SDS011;75252;45.438;-73.814;2024-01-15T06:12:47;1.27;;;1.20;;
84956;SDS011;75252;45.438;-73.814;2024-01-15T06:15:13;1.70;;;1.60;;
84956;SDS011;75252;45.438;-73.814;2024-01-15T06:17:39;2.03;;;1.70;;
84956;SDS011;75252;45.438;-73.814;2024-01-15T06:20:05;1.33;;;1.17;;
84956;SDS011;75252;45.438;-73.814;2024-01-15T06:22:31;2.63;;;1.52;;
84956;SDS011;75252;45.438;-73.814;2024-01-15T06:24:57;1.38;;;1.25;;
84956;SDS011;75252;45.438;-73.814;2024-01-15T06:27:23;1.95;;;1.55;;
84956;SDS011;75252;45.438;-73.814;2024-01-15T06:29:49;1.73;;;1.63;;
84956;SDS011;75252;45.438;-73.814;2024-01-15T06:32:15;1.50;;;1.23;;
84956;SDS011;75252;45.438;-73.814;2024-01-15T06:34:41;1.20;;;1.10;;
84956;SDS011;75252;45.438;-73.814;2024-01-15T06:37:07;1.20;;;1.10;;
84956;SDS011;75252;45.438;-73.814;2024-01-15T06:39:33;1.98;;;1.27;;
84956;SDS011;75252;45.438;-73.814;2024-01-15T06:41:59;1.25;;;1.15;;
84956;SDS011;75252;45.438;-73.814;2024-01-15T06:44:25;1.58;;;1.48;;
84956;SDS011;75252;45.438;-73.814;2024-01-15T06:46:51;1.67;;;1.58;;
84956;SDS011;75252;45.438;-73.814;2024-01-15T06:49:17;1.63;;;1.52;;
84956;SDS011;75252;45.438;-73.814;2024-01-15T06:51:43;8.10;;;1.65;;
84956;SDS011;75252;45.438;-73.814;2024-01-15T06:54:09;1.80;;;1.58;;
84956;SDS011;75252;45.438;-73.814;2024-01-15T06:56:34;1.30;;;1.27;;
84956;SDS011;75252;45.438;-73.814;2024-01-15T06:59:00;2.80;;;1.40;;
84956;SDS011;75252;45.438;-73.814;2024-01-15T07:01:26;1.02;;;1.02;;
84956;SDS011;75252;45.438;-73.814;2024-01-15T07:03:52;1.40;;;1.30;;
84956;SDS011;75252;45.438;-73.814;2024-01-15T07:06:18;1.90;;;1.33;;
84956;SDS011;75252;45.438;-73.814;2024-01-15T07:08:45;1.83;;;1.55;;
84956;SDS011;75252;45.438;-73.814;2024-01-15T07:11:11;3.50;;;1.95;;
84956;SDS011;75252;45.438;-73.814;2024-01-15T07:13:37;2.13;;;1.35;;
84956;SDS011;75252;45.438;-73.814;2024-01-15T07:16:03;3.40;;;1.45;;
84956;SDS011;75252;45.438;-73.814;2024-01-15T07:18:29;1.58;;;1.33;;
84956;SDS011;75252;45.438;-73.814;2024-01-15T07:20:56;1.38;;;1.27;;
84956;SDS011;75252;45.438;-73.814;2024-01-15T07:23:22;1.15;;;1.13;;
84956;SDS011;75252;45.438;-73.814;2024-01-15T07:25:47;2.30;;;1.83;;
84956;SDS011;75252;45.438;-73.814;2024-01-15T07:28:13;1.85;;;1.38;;
84956;SDS011;75252;45.438;-73.814;2024-01-15T07:30:39;1.67;;;1.55;;
84956;SDS011;75252;45.438;-73.814;2024-01-15T07:33:05;1.45;;;1.35;;
84956;SDS011;75252;45.438;-73.814;2024-01-15T07:35:31;3.65;;;1.80;;
84956;SDS011;75252;45.438;-73.814;2024-01-15T07:37:57;1.80;;;1.70;;
84956;SDS011;75252;45.438;-73.814;2024-01-15T07:40:23;1.50;;;1.40;;
84956;SDS011;75252;45.438;-73.814;2024-01-15T07:42:50;1.40;;;1.30;;
84956;SDS011;75252;45.438;-73.814;2024-01-15T07:45:16;4.03;;;1.73;;
84956;SDS011;75252;45.438;-73.814;2024-01-15T07:47:43;1.58;;;1.48;;
84956;SDS011;75252;45.438;-73.814;2024-01-15T07:50:09;1.50;;;1.40;;
84956;SDS011;75252;45.438;-73.814;2024-01-15T07:52:35;1.35;;;1.25;;
84956;SDS011;75252;45.438;-73.814;2024-01-15T07:55:01;1.25;;;1.15;;
84956;SDS011;75252;45.438;-73.814;2024-01-15T07:59:56;1.48;;;1.38;;
84956;SDS011;75252;45.438;-73.814;2024-01-15T08:02:22;1.58;;;1.48;;
84956;SDS011;75252;45.438;-73.814;2024-01-15T08:04:48;3.03;;;1.40;;
84956;SDS011;75252;45.438;-73.814;2024-01-15T08:07:14;2.10;;;1.58;;
84956;SDS011;75252;45.438;-73.814;2024-01-15T08:09:39;1.63;;;1.52;;
84956;SDS011;75252;45.438;-73.814;2024-01-15T08:12:05;1.70;;;1.42;;
84956;SDS011;75252;45.438;-73.814;2024-01-15T08:14:31;1.73;;;1.63;;
84956;SDS011;75252;45.438;-73.814;2024-01-15T08:16:57;2.47;;;1.92;;
84956;SDS011;75252;45.438;-73.814;2024-01-15T08:19:23;1.65;;;1.55;;
84956;SDS011;75252;45.438;-73.814;2024-01-15T08:21:49;2.15;;;1.70;;
84956;SDS011;75252;45.438;-73.814;2024-01-15T08:24:15;2.40;;;1.80;;
84956;SDS011;75252;45.438;-73.814;2024-01-15T08:26:42;3.65;;;1.83;;
84956;SDS011;75252;45.438;-73.814;2024-01-15T08:29:08;2.95;;;1.85;;
84956;SDS011;75252;45.438;-73.814;2024-01-15T08:31:34;3.40;;;2.22;;
84956;SDS011;75252;45.438;-73.814;2024-01-15T08:33:59;3.30;;;2.83;;
84956;SDS011;75252;45.438;-73.814;2024-01-15T08:36:27;4.28;;;2.00;;
84956;SDS011;75252;45.438;-73.814;2024-01-15T08:38:56;2.40;;;1.92;;
84956;SDS011;75252;45.438;-73.814;2024-01-15T08:41:22;1.95;;;1.77;;
84956;SDS011;75252;45.438;-73.814;2024-01-15T08:43:48;2.55;;;2.35;;
84956;SDS011;75252;45.438;-73.814;2024-01-15T08:46:14;2.88;;;2.28;;
84956;SDS011;75252;45.438;-73.814;2024-01-15T08:48:40;2.72;;;1.80;;
84956;SDS011;75252;45.438;-73.814;2024-01-15T08:51:06;3.05;;;2.17;;
84956;SDS011;75252;45.438;-73.814;2024-01-15T08:53:33;2.40;;;1.92;;
84956;SDS011;75252;45.438;-73.814;2024-01-15T08:55:59;1.92;;;1.67;;
84956;SDS011;75252;45.438;-73.814;2024-01-15T08:58:24;4.65;;;2.67;;
84956;SDS011;75252;45.438;-73.814;2024-01-15T09:00:51;3.00;;;1.75;;
84956;SDS011;75252;45.438;-73.814;2024-01-15T09:03:17;2.22;;;2.05;;
84956;SDS011;75252;45.438;-73.814;2024-01-15T09:05:42;3.40;;;2.38;;
84956;SDS011;75252;45.438;-73.814;2024-01-15T09:08:08;2.35;;;1.95;;
84956;SDS011;75252;45.438;-73.814;2024-01-15T09:10:35;3.30;;;1.50;;
84956;SDS011;75252;45.438;-73.814;2024-01-15T09:13:01;2.35;;;1.60;;
84956;SDS011;75252;45.438;-73.814;2024-01-15T09:15:29;2.35;;;1.90;;
84956;SDS011;75252;45.438;-73.814;2024-01-15T09:17:54;2.50;;;2.08;;
84956;SDS011;75252;45.438;-73.814;2024-01-15T09:20:22;3.28;;;2.13;;
84956;SDS011;75252;45.438;-73.814;2024-01-15T09:22:48;3.25;;;2.15;;
84956;SDS011;75252;45.438;-73.814;2024-01-15T09:25:14;3.03;;;2.67;;
84956;SDS011;75252;45.438;-73.814;2024-01-15T09:27:40;2.70;;;1.92;;
84956;SDS011;75252;45.438;-73.814;2024-01-15T09:30:06;3.28;;;2.10;;
84956;SDS011;75252;45.438;-73.814;2024-01-15T09:32:33;3.35;;;1.75;;
84956;SDS011;75252;45.438;-73.814;2024-01-15T09:34:59;2.20;;;2.03;;
84956;SDS011;75252;45.438;-73.814;2024-01-15T09:37:25;2.65;;;2.30;;
84956;SDS011;75252;45.438;-73.814;2024-01-15T09:39:51;3.88;;;2.38;;
84956;SDS011;75252;45.438;-73.814;2024-01-15T09:42:17;3.50;;;1.95;;
84956;SDS011;75252;45.438;-73.814;2024-01-15T09:44:43;2.83;;;2.20;;
84956;SDS011;75252;45.438;-73.814;2024-01-15T09:47:10;2.92;;;2.38;;
84956;SDS011;75252;45.438;-73.814;2024-01-15T09:49:37;1.40;;;1.30;;
84956;SDS011;75252;45.438;-73.814;2024-01-15T09:52:05;2.58;;;2.33;;
84956;SDS011;75252;45.438;-73.814;2024-01-15T09:54:33;1.92;;;1.83;;
84956;SDS011;75252;45.438;-73.814;2024-01-15T09:57:00;3.15;;;2.28;;
84956;SDS011;75252;45.438;-73.814;2024-01-15T09:59:26;1.73;;;1.63;;
84956;SDS011;75252;45.438;-73.814;2024-01-15T10:01:53;2.47;;;1.65;;
84956;SDS011;75252;45.438;-73.814;2024-01-15T10:04:22;2.72;;;2.20;;
84956;SDS011;75252;45.438;-73.814;2024-01-15T10:06:49;2.22;;;2.03;;
84956;SDS011;75252;45.438;-73.814;2024-01-15T10:09:17;2.00;;;1.88;;
84956;SDS011;75252;45.438;-73.814;2024-01-15T10:11:43;2.60;;;2.33;;
84956;SDS011;75252;45.438;-73.814;2024-01-15T10:14:10;2.75;;;2.42;;
84956;SDS011;75252;45.438;-73.814;2024-01-15T10:16:38;3.35;;;2.03;;
84956;SDS011;75252;45.438;-73.814;2024-01-15T10:19:07;5.30;;;2.30;;
84956;SDS011;75252;45.438;-73.814;2024-01-15T10:21:33;3.97;;;2.35;;
84956;SDS011;75252;45.438;-73.814;2024-01-15T10:24:00;7.13;;;2.13;;
84956;SDS011;75252;45.438;-73.814;2024-01-15T10:26:27;2.92;;;2.13;;
84956;SDS011;75252;45.438;-73.814;2024-01-15T10:28:54;4.00;;;2.10;;
84956;SDS011;75252;45.438;-73.814;2024-01-15T10:31:20;2.28;;;1.98;;
84956;SDS011;75252;45.438;-73.814;2024-01-15T10:33:49;1.92;;;1.73;;
84956;SDS011;75252;45.438;-73.814;2024-01-15T10:36:16;5.88;;;2.13;;
84956;SDS011;75252;45.438;-73.814;2024-01-15T10:38:43;2.72;;;1.80;;
84956;SDS011;75252;45.438;-73.814;2024-01-15T10:41:09;3.63;;;2.05;;
84956;SDS011;75252;45.438;-73.814;2024-01-15T10:43:35;2.72;;;2.50;;
84956;SDS011;75252;45.438;-73.814;2024-01-15T10:46:03;2.38;;;2.17;;
84956;SDS011;75252;45.438;-73.814;2024-01-15T10:48:30;3.00;;;2.45;;
84956;SDS011;75252;45.438;-73.814;2024-01-15T10:51:00;2.33;;;2.08;;
84956;SDS011;75252;45.438;-73.814;2024-01-15T10:53:36;3.72;;;2.42;;
84956;SDS011;75252;45.438;-73.814;2024-01-15T10:56:05;3.53;;;2.17;;
84956;SDS011;75252;45.438;-73.814;2024-01-15T10:58:32;3.85;;;2.75;;
84956;SDS011;75252;45.438;-73.814;2024-01-15T11:01:00;2.97;;;2.22;;
84956;SDS011;75252;45.438;-73.814;2024-01-15T11:03:27;2.25;;;1.95;;
84956;SDS011;75252;45.438;-73.814;2024-01-15T11:05:53;3.33;;;2.58;;
84956;SDS011;75252;45.438;-73.814;2024-01-15T11:08:19;5.03;;;2.15;;
84956;SDS011;75252;45.438;-73.814;2024-01-15T11:10:50;2.17;;;2.00;;
84956;SDS011;75252;45.438;-73.814;2024-01-15T11:13:21;2.45;;;2.00;;
84956;SDS011;75252;45.438;-73.814;2024-01-15T11:15:57;2.60;;;2.15;;
84956;SDS011;75252;45.438;-73.814;2024-01-15T11:18:28;4.57;;;2.15;;
84956;SDS011;75252;45.438;-73.814;2024-01-15T11:23:43;2.80;;;2.22;;
84956;SDS011;75252;45.438;-73.814;2024-01-15T11:28:55;2.22;;;2.00;;
84956;SDS011;75252;45.438;-73.814;2024-01-15T11:31:28;2.55;;;1.67;;
84956;SDS011;75252;45.438;-73.814;2024-01-15T11:34:14;2.75;;;2.50;;
84956;SDS011;75252;45.438;-73.814;2024-01-15T11:42:03;5.00;;;2.80;;
84956;SDS011;75252;45.438;-73.814;2024-01-15T11:44:29;3.58;;;2.00;;
84956;SDS011;75252;45.438;-73.814;2024-01-15T11:47:05;4.68;;;1.98;;
84956;SDS011;75252;45.438;-73.814;2024-01-15T11:49:49;3.10;;;1.75;;
84956;SDS011;75252;45.438;-73.814;2024-01-15T11:52:39;5.35;;;1.73;;
84956;SDS011;75252;45.438;-73.814;2024-01-15T11:57:52;3.42;;;2.15;;
84956;SDS011;75252;45.438;-73.814;2024-01-15T12:00:22;2.65;;;2.22;;
84956;SDS011;75252;45.438;-73.814;2024-01-15T12:02:48;2.72;;;2.40;;
84956;SDS011;75252;45.438;-73.814;2024-01-15T12:05:18;2.55;;;1.90;;
84956;SDS011;75252;45.438;-73.814;2024-01-15T12:07:46;1.73;;;1.63;;
84956;SDS011;75252;45.438;-73.814;2024-01-15T12:12:59;3.50;;;1.50;;
84956;SDS011;75252;45.438;-73.814;2024-01-15T12:15:29;2.15;;;1.92;;
84956;SDS011;75252;45.438;-73.814;2024-01-15T12:17:56;2.90;;;2.25;;
84956;SDS011;75252;45.438;-73.814;2024-01-15T12:20:23;2.50;;;1.75;;
84956;SDS011;75252;45.438;-73.814;2024-01-15T12:22:50;5.63;;;2.08;;
84956;SDS011;75252;45.438;-73.814;2024-01-15T12:25:16;2.70;;;2.33;;
84956;SDS011;75252;45.438;-73.814;2024-01-15T12:27:42;7.05;;;2.78;;
84956;SDS011;75252;45.438;-73.814;2024-01-15T12:30:10;4.20;;;2.28;;
84956;SDS011;75252;45.438;-73.814;2024-01-15T12:32:37;4.05;;;2.17;;
84956;SDS011;75252;45.438;-73.814;2024-01-15T12:35:03;4.45;;;2.50;;
84956;SDS011;75252;45.438;-73.814;2024-01-15T12:37:30;2.15;;;1.95;;
84956;SDS011;75252;45.438;-73.814;2024-01-15T12:39:56;2.80;;;2.08;;
84956;SDS011;75252;45.438;-73.814;2024-01-15T12:42:24;3.22;;;2.22;;
84956;SDS011;75252;45.438;-73.814;2024-01-15T12:44:50;2.50;;;2.30;;
84956;SDS011;75252;45.438;-73.814;2024-01-15T12:47:16;4.78;;;2.85;;
84956;SDS011;75252;45.438;-73.814;2024-01-15T12:49:46;3.33;;;2.45;;
84956;SDS011;75252;45.438;-73.814;2024-01-15T12:52:18;5.25;;;2.70;;
84956;SDS011;75252;45.438;-73.814;2024-01-15T12:54:44;2.13;;;1.92;;
84956;SDS011;75252;45.438;-73.814;2024-01-15T12:57:10;3.00;;;1.80;;
84956;SDS011;75252;45.438;-73.814;2024-01-15T12:59:36;2.45;;;2.03;;
84956;SDS011;75252;45.438;-73.814;2024-01-15T13:02:02;3.80;;;2.53;;
84956;SDS011;75252;45.438;-73.814;2024-01-15T13:04:28;3.13;;;2.03;;
84956;SDS011;75252;45.438;-73.814;2024-01-15T13:06:55;3.70;;;2.38;;
84956;SDS011;75252;45.438;-73.814;2024-01-15T13:09:21;2.38;;;1.63;;
84956;SDS011;75252;45.438;-73.814;2024-01-15T13:11:47;2.63;;;2.22;;
84956;SDS011;75252;45.438;-73.814;2024-01-15T13:14:13;1.83;;;1.73;;
84956;SDS011;75252;45.438;-73.814;2024-01-15T13:16:42;5.18;;;1.95;;
84956;SDS011;75252;45.438;-73.814;2024-01-15T13:19:08;4.57;;;2.28;;
84956;SDS011;75252;45.438;-73.814;2024-01-15T13:21:40;3.67;;;1.95;;
84956;SDS011;75252;45.438;-73.814;2024-01-15T13:24:06;3.08;;;1.77;;
84956;SDS011;75252;45.438;-73.814;2024-01-15T13:26:35;3.40;;;1.77;;
84956;SDS011;75252;45.438;-73.814;2024-01-15T13:29:06;4.55;;;2.53;;
84956;SDS011;75252;45.438;-73.814;2024-01-15T13:31:32;2.42;;;1.73;;
84956;SDS011;75252;45.438;-73.814;2024-01-15T13:33:58;2.63;;;2.00;;
84956;SDS011;75252;45.438;-73.814;2024-01-15T13:36:27;2.40;;;2.20;;
84956;SDS011;75252;45.438;-73.814;2024-01-15T13:38:54;2.42;;;2.22;;
84956;SDS011;75252;45.438;-73.814;2024-01-15T13:41:20;3.45;;;2.08;;
84956;SDS011;75252;45.438;-73.814;2024-01-15T13:43:53;3.75;;;2.47;;
84956;SDS011;75252;45.438;-73.814;2024-01-15T13:46:20;4.70;;;2.60;;
84956;SDS011;75252;45.438;-73.814;2024-01-15T13:48:51;4.32;;;2.40;;
84956;SDS011;75252;45.438;-73.814;2024-01-15T13:51:18;3.67;;;2.25;;
84956;SDS011;75252;45.438;-73.814;2024-01-15T13:53:45;6.22;;;2.45;;
84956;SDS011;75252;45.438;-73.814;2024-01-15T13:56:11;4.72;;;2.35;;
84956;SDS011;75252;45.438;-73.814;2024-01-15T13:58:37;2.90;;;2.33;;
84956;SDS011;75252;45.438;-73.814;2024-01-15T14:01:03;5.50;;;2.45;;
84956;SDS011;75252;45.438;-73.814;2024-01-15T14:03:31;4.45;;;2.42;;
84956;SDS011;75252;45.438;-73.814;2024-01-15T14:05:59;2.92;;;2.47;;
84956;SDS011;75252;45.438;-73.814;2024-01-15T14:08:25;8.75;;;2.92;;
84956;SDS011;75252;45.438;-73.814;2024-01-15T14:10:51;5.13;;;2.17;;
84956;SDS011;75252;45.438;-73.814;2024-01-15T14:13:17;3.53;;;2.33;;
84956;SDS011;75252;45.438;-73.814;2024-01-15T14:15:43;5.63;;;2.75;;
84956;SDS011;75252;45.438;-73.814;2024-01-15T14:18:09;4.00;;;2.05;;
84956;SDS011;75252;45.438;-73.814;2024-01-15T14:20:34;2.53;;;2.33;;
84956;SDS011;75252;45.438;-73.814;2024-01-15T14:23:00;4.68;;;2.35;;
84956;SDS011;75252;45.438;-73.814;2024-01-15T14:25:26;5.53;;;2.80;;
84956;SDS011;75252;45.438;-73.814;2024-01-15T14:27:52;3.70;;;2.63;;
84956;SDS011;75252;45.438;-73.814;2024-01-15T14:30:18;3.33;;;2.22;;
84956;SDS011;75252;45.438;-73.814;2024-01-15T14:32:44;3.65;;;2.03;;
84956;SDS011;75252;45.438;-73.814;2024-01-15T14:35:10;2.95;;;2.08;;
84956;SDS011;75252;45.438;-73.814;2024-01-15T14:37:39;2.58;;;1.90;;
84956;SDS011;75252;45.438;-73.814;2024-01-15T14:40:06;2.40;;;2.10;;